»·PEaware :: N982CA KAJO-KVCV

N982CA :: KAJO-KVCV

FLIGHT INFORMATION

Flight Status: Arrived
Operator: Privately registered:
United States
More flights under this callsign
Pilot: Anonymous 15639 (15639)
Aircraft: Unknown
(DA62)
More flights by this aircraft type
Origin: KAJO Corona Mun
United States
Destination: KVCV Socal Logistics
United States
More flights between these airports :: More routes between these airports
Route: +PDZ V442 APLES
File this flight plan on PilotEdge
Remarks: / RMK I-11
Altitude:
(Current/Filed)
9,000ft
Speed:
(Current/Filed)
170kts
Departed: 23-Jul-18 10:30 AM
Arrived: 23-Jul-18 11:23 AM
Distance/Time
Traveled:
44nm/0:53
Distance/Time
To Go:
Arrived

Flight Plot

Page will automatically refresh every two minutes.


Map Options




Map Legend


Flown Route
Filed Route
Departure Airport
Arrival Airport
Navaid (VOR, NDB)
Fix

Horizontal Profiles

Position Reports

Time Latitude Longitude Heading Altitude Ground
Speed
23-Jul-18 10:21 33.896786 -117.597955 90 537ft 0kts
23-Jul-18 10:22 33.896786 -117.597955 90 537ft 0kts
23-Jul-18 10:23 33.896786 -117.597955 90 537ft 0kts
23-Jul-18 10:24 33.896786 -117.597955 90 537ft 0kts
23-Jul-18 10:25 33.896786 -117.597955 90 537ft 0kts
23-Jul-18 10:26 33.896786 -117.597955 90 537ft 0kts
23-Jul-18 10:27 33.896827 -117.597784 27 537ft 4kts
23-Jul-18 10:28 33.896941 -117.597769 357 537ft 0kts
23-Jul-18 10:29 33.897489 -117.597429 345 537ft 4kts
23-Jul-18 10:30 33.897731 -117.597779 267 537ft 0kts
23-Jul-18 10:31 33.897525 -117.610029 269 723ft 87kts
23-Jul-18 10:32 33.914009 -117.630629 17 1681ft 113kts
23-Jul-18 10:33 33.920962 -117.595173 85 2604ft 120kts
23-Jul-18 10:34 33.920178 -117.554560 92 3579ft 122kts
23-Jul-18 10:35 33.919050 -117.513437 87 4543ft 124kts
23-Jul-18 10:36 33.940827 -117.503932 264 5305ft 137kts
23-Jul-18 10:37 33.912559 -117.534855 208 6043ft 140kts
23-Jul-18 10:38 33.896017 -117.509609 46 6780ft 141kts
23-Jul-18 10:39 33.924947 -117.478084 36 7602ft 140kts
23-Jul-18 10:40 33.943490 -117.500320 226 8206ft 151kts
23-Jul-18 10:41 33.912636 -117.533967 218 8901ft 150kts
23-Jul-18 10:42 33.888671 -117.507437 64 9026ft 169kts
23-Jul-18 10:43 33.931680 -117.504891 343 9033ft 169kts
23-Jul-18 10:44 33.975586 -117.497283 28 9009ft 170kts
23-Jul-18 10:45 34.017420 -117.470626 26 9009ft 170kts
23-Jul-18 10:46 34.059635 -117.445226 26 9012ft 169kts
23-Jul-18 10:47 34.101687 -117.419935 26 9016ft 169kts
23-Jul-18 10:48 34.143760 -117.394604 26 9017ft 169kts
23-Jul-18 10:49 34.185805 -117.369260 26 9018ft 169kts
23-Jul-18 10:50 34.227918 -117.343846 26 9018ft 169kts
23-Jul-18 10:51 34.269905 -117.318481 26 9033ft 169kts
23-Jul-18 10:52 34.311882 -117.293094 26 9054ft 168kts
23-Jul-18 10:53 34.354098 -117.267530 26 8944ft 174kts
23-Jul-18 10:54 34.396653 -117.241739 26 8939ft 169kts
23-Jul-18 10:55 34.438556 -117.216314 26 8944ft 168kts
23-Jul-18 10:56 34.480376 -117.190919 26 8956ft 168kts
23-Jul-18 10:57 34.522027 -117.165588 26 8974ft 167kts
23-Jul-18 10:58 34.564764 -117.144886 3 8998ft 166kts
23-Jul-18 10:59 34.611688 -117.146129 358 8509ft 170kts
23-Jul-18 11:00 34.657389 -117.155859 340 7802ft 166kts
23-Jul-18 11:01 34.698927 -117.179734 334 7101ft 164kts
23-Jul-18 11:02 34.734609 -117.213277 314 6601ft 162kts
23-Jul-18 11:03 34.762491 -117.254828 303 6592ft 164kts
23-Jul-18 11:04 34.783047 -117.302950 292 6420ft 154kts
23-Jul-18 11:05 34.791161 -117.351382 242 5697ft 143kts
23-Jul-18 11:06 34.759963 -117.376587 186 5197ft 126kts
23-Jul-18 11:07 34.728767 -117.379529 184 4534ft 105kts
23-Jul-18 11:08 34.700752 -117.381810 183 4299ft 98kts
23-Jul-18 11:09 34.674655 -117.383669 182 3914ft 92kts
23-Jul-18 11:10 34.649519 -117.385474 184 3461ft 91kts
23-Jul-18 11:11 34.624275 -117.387905 184 3255ft 95kts
23-Jul-18 11:12 34.601585 -117.403100 249 4042ft 111kts
23-Jul-18 11:13 34.603363 -117.438780 287 5136ft 107kts
23-Jul-18 11:14 34.611215 -117.478877 283 5792ft 135kts
23-Jul-18 11:15 34.619316 -117.526602 274 5667ft 145kts
23-Jul-18 11:16 34.598922 -117.564355 193 5141ft 145kts
23-Jul-18 11:17 34.577703 -117.529392 101 4475ft 153kts
23-Jul-18 11:18 34.579161 -117.479764 77 4073ft 148kts
23-Jul-18 11:19 34.588464 -117.431772 70 3858ft 141kts
23-Jul-18 11:20 34.617716 -117.410040 2 3883ft 130kts
23-Jul-18 11:21 34.648946 -117.408551 15 3725ft 95kts
23-Jul-18 11:22 34.642480 -117.387464 173 3194ft 97kts
23-Jul-18 11:23 34.616209 -117.386726 179 2888ft 75kts
23-Jul-18 11:24 34.610562 -117.385240 87 2888ft 0kts
23-Jul-18 11:25 34.610562 -117.385240 87 2888ft 0kts
23-Jul-18 11:26 34.607147 -117.384155 180 2888ft 20kts

Navigation Log

Ident Type
1. KAJO Airport
2. PDZ Navaid
3. APLES Fix
4. KVCV Airport